Time;durP1;ratioP1;P1;durP2;ratioP2;P2;SDS_P1;SDS_P2;PMS_P1;PMS_P2;Temp;Humidity;BMP_temperature;BMP_pressure;BME280_temperature;BME280_humidity;BME280_pressure;Samples;Min_cycle;Max_cycle;Signal;HPM_P1;HPM_P2
2023/09/06 00:01:40;;;;;;;11.80;7.40;;;;;;;12.26;73.62;101006.12;131648;1251;106716;-78
2023/09/06 00:04:48;;;;;;;12.30;6.90;;;;;;;12.22;73.66;101001.30;131846;1248;106992;-77
2023/09/06 00:07:53;;;;;;;10.30;7.40;;;;;;;12.21;73.42;101004.08;131909;1251;106579;-76
2023/09/06 00:11:04;;;;;;;11.40;7.70;;;;;;;12.20;73.83;101010.63;131808;1250;108053;-76
2023/09/06 00:14:11;;;;;;;12.20;7.60;;;;;;;12.16;73.72;101014.36;131700;1250;107747;-78
2023/09/06 00:17:16;;;;;;;13.30;7.80;;;;;;;12.17;73.89;101014.55;131588;1248;106534;-78
2023/09/06 00:20:24;;;;;;;10.80;8.10;;;;;;;12.18;73.78;101016.08;131557;1248;107274;-78
2023/09/06 00:23:31;;;;;;;11.40;7.70;;;;;;;12.16;73.77;101007.88;131856;1247;106574;-78
2023/09/06 00:26:36;;;;;;;11.70;8.10;;;;;;;12.13;73.74;101008.16;131702;1247;106947;-78
2023/09/06 00:29:45;;;;;;;11.40;7.80;;;;;;;12.10;73.97;101007.38;131595;1250;108173;-78
2023/09/06 00:32:53;;;;;;;11.30;8.00;;;;;;;12.06;73.99;100999.05;131499;1248;106717;-77
2023/09/06 00:35:59;;;;;;;9.80;6.80;;;;;;;12.04;74.09;100999.08;131555;1250;106385;-78
2023/09/06 00:39:05;;;;;;;12.60;7.80;;;;;;;12.03;74.21;100995.21;131609;1248;107777;-77
2023/09/06 00:42:12;;;;;;;11.70;7.60;;;;;;;12.03;74.00;100995.41;131629;1250;107089;-77
2023/09/06 00:45:22;;;;;;;11.30;7.60;;;;;;;12.05;74.16;100992.86;131802;1250;106748;-79
2023/09/06 00:48:29;;;;;;;11.70;7.60;;;;;;;12.06;74.03;100988.67;131690;1248;107897;-77
2023/09/06 00:51:35;;;;;;;10.60;7.80;;;;;;;12.07;74.14;100990.45;131837;1247;107253;-77
2023/09/06 00:54:41;;;;;;;11.80;8.30;;;;;;;12.06;73.77;100990.16;131709;1248;165183;-77
2023/09/06 00:57:47;;;;;;;11.00;7.80;;;;;;;12.02;74.09;100989.27;131876;1248;107499;-77
2023/09/06 01:00:53;;;;;;;10.70;8.00;;;;;;;12.00;74.37;100990.50;131860;1251;106597;-77
2023/09/06 01:03:59;;;;;;;9.60;6.90;;;;;;;11.99;74.43;100990.46;131809;1252;107911;-77
2023/09/06 01:07:06;;;;;;;9.00;6.80;;;;;;;11.97;74.28;100988.28;131816;1252;107741;-77
2023/09/06 01:10:12;;;;;;;11.80;7.40;;;;;;;11.96;74.72;100984.11;131761;1252;107676;-78
2023/09/06 01:13:18;;;;;;;10.20;7.40;;;;;;;11.97;74.71;100987.53;131758;1252;106593;-77
2023/09/06 01:16:30;;;;;;;11.60;7.50;;;;;;;12.02;74.66;100988.43;131824;1248;107173;-77
2023/09/06 01:19:40;;;;;;;10.20;7.70;;;;;;;11.97;74.40;100988.84;131795;1251;108711;-80
2023/09/06 01:22:52;;;;;;;13.40;7.40;;;;;;;11.94;74.67;100983.37;131754;1251;107831;-78
2023/09/06 01:25:58;;;;;;;11.90;7.90;;;;;;;11.94;74.85;100977.58;131855;1248;107379;-78
2023/09/06 01:29:05;;;;;;;11.10;7.20;;;;;;;11.91;74.85;100972.14;131895;1253;107885;-81
2023/09/06 01:32:10;;;;;;;11.10;8.00;;;;;;;11.88;74.71;100970.44;131722;1253;107574;-77
2023/09/06 01:35:16;;;;;;;9.70;7.20;;;;;;;11.80;74.86;100972.40;131518;1253;107689;-77
2023/09/06 01:38:22;;;;;;;11.80;7.10;;;;;;;11.79;75.03;100972.98;131616;1250;106639;-77
2023/09/06 01:41:28;;;;;;;10.70;7.00;;;;;;;11.82;75.28;100972.09;131573;1250;108467;-77
2023/09/06 01:44:35;;;;;;;10.50;7.30;;;;;;;11.85;75.06;100981.96;131640;1250;107768;-78
2023/09/06 01:47:41;;;;;;;10.70;7.40;;;;;;;11.87;75.17;100978.88;131706;1248;108274;-77
2023/09/06 01:50:47;;;;;;;11.80;7.20;;;;;;;11.88;75.28;100973.48;131842;1251;106790;-77
2023/09/06 01:53:52;;;;;;;12.10;7.50;;;;;;;11.87;75.36;100966.94;131794;1251;107727;-77
2023/09/06 01:56:58;;;;;;;12.20;7.70;;;;;;;11.85;75.25;100974.95;131731;1250;107708;-77
2023/09/06 02:00:18;;;;;;;12.20;8.00;;;;;;;11.82;75.12;100970.95;131868;1253;107701;-77
2023/09/06 02:03:27;;;;;;;11.30;7.50;;;;;;;11.77;75.28;100976.71;131883;1251;107811;-78
2023/09/06 02:06:32;;;;;;;11.70;7.70;;;;;;;11.74;75.50;100979.87;131599;1253;107761;-78
2023/09/06 02:09:38;;;;;;;9.90;6.50;;;;;;;11.72;75.47;100974.91;131553;1260;107466;-77
2023/09/06 02:12:44;;;;;;;11.50;7.20;;;;;;;11.68;75.49;100973.85;131577;1248;107466;-77
2023/09/06 02:15:50;;;;;;;10.30;7.20;;;;;;;11.68;75.58;100972.08;131550;1250;107832;-78
2023/09/06 02:18:56;;;;;;;11.10;7.70;;;;;;;11.69;75.65;100977.34;131332;1251;105968;-78
2023/09/06 02:22:02;;;;;;;12.00;7.60;;;;;;;11.71;75.56;100981.25;131577;1255;107823;-77
2023/09/06 02:25:09;;;;;;;11.70;8.80;;;;;;;11.70;75.51;100982.94;131665;1248;106943;-78
2023/09/06 02:28:17;;;;;;;12.70;7.50;;;;;;;11.69;75.78;100984.45;131819;1250;107995;-78
2023/09/06 02:31:24;;;;;;;10.70;7.90;;;;;;;11.66;75.65;100984.40;131655;1253;107679;-77
2023/09/06 02:34:30;;;;;;;13.20;7.60;;;;;;;11.63;75.55;100988.47;131551;1251;108551;-77
2023/09/06 02:37:36;;;;;;;9.50;7.20;;;;;;;11.55;75.59;100987.84;131590;1250;107682;-75
2023/09/06 02:40:42;;;;;;;10.80;7.50;;;;;;;11.52;75.64;100990.71;131860;1250;107603;-75
2023/09/06 02:43:48;;;;;;;10.60;7.80;;;;;;;11.51;75.73;100995.41;131852;1248;107740;-76
2023/09/06 02:46:53;;;;;;;12.10;7.60;;;;;;;11.52;75.91;101000.98;131556;1250;106801;-75
2023/09/06 02:49:59;;;;;;;10.10;7.70;;;;;;;11.55;75.86;101002.31;133204;1250;107360;-76
2023/09/06 02:53:15;;;;;;;13.40;7.60;;;;;;;11.55;75.89;101002.68;131301;1253;107705;-77
2023/09/06 02:56:20;;;;;;;11.10;7.10;;;;;;;11.54;75.93;101006.86;131522;1248;107675;-73
2023/09/06 02:59:28;;;;;;;12.90;7.50;;;;;;;11.52;75.95;101004.52;131520;1248;107532;-75
2023/09/06 03:02:33;;;;;;;11.10;7.40;;;;;;;11.51;76.10;101008.77;131581;1251;108676;-75
2023/09/06 03:05:42;;;;;;;11.30;7.60;;;;;;;11.48;75.88;101014.21;131466;1262;107491;-75
2023/09/06 03:08:51;;;;;;;10.90;6.40;;;;;;;11.45;76.00;101015.19;131551;1248;108451;-75
2023/09/06 03:11:57;;;;;;;12.10;7.40;;;;;;;11.42;76.13;101013.66;131553;1253;106999;-75
2023/09/06 03:15:03;;;;;;;9.00;7.10;;;;;;;11.40;76.05;101009.56;131479;1253;108628;-75
2023/09/06 03:18:10;;;;;;;10.80;7.00;;;;;;;11.40;75.97;101012.94;131436;1250;107330;-75
2023/09/06 03:21:17;;;;;;;9.90;7.50;;;;;;;11.39;76.15;101012.63;131515;1248;107112;-75
2023/09/06 03:24:23;;;;;;;11.10;7.30;;;;;;;11.40;76.14;101011.69;131455;1251;106740;-75
2023/09/06 03:27:28;;;;;;;12.60;7.80;;;;;;;11.39;76.20;101016.04;131319;1253;107461;-75
2023/09/06 03:30:34;;;;;;;11.00;8.40;;;;;;;11.35;76.14;101018.36;131484;1260;108585;-75
2023/09/06 03:33:40;;;;;;;10.50;7.40;;;;;;;11.32;76.22;101021.34;131499;1248;107469;-75
2023/09/06 03:36:51;;;;;;;10.30;7.40;;;;;;;11.29;76.20;101022.15;131457;1250;108437;-75
2023/09/06 03:39:57;;;;;;;10.70;6.90;;;;;;;11.24;76.26;101017.78;131277;1248;106892;-76
2023/09/06 03:43:05;;;;;;;10.30;7.50;;;;;;;11.23;76.31;101017.88;131315;1254;107687;-75
2023/09/06 03:46:13;;;;;;;9.60;7.50;;;;;;;11.23;76.27;101016.77;131425;1253;108292;-75
2023/09/06 03:49:18;;;;;;;10.00;7.20;;;;;;;11.25;76.44;101015.43;131383;1248;106824;-75
2023/09/06 03:52:26;;;;;;;10.00;7.70;;;;;;;11.25;76.31;101017.35;131331;1252;108198;-75
2023/09/06 03:55:32;;;;;;;11.30;7.70;;;;;;;11.23;76.35;101016.44;131364;1253;106344;-75
2023/09/06 03:58:40;;;;;;;10.20;7.80;;;;;;;11.22;76.32;101015.84;131541;1251;107014;-75
2023/09/06 04:01:47;;;;;;;10.00;7.40;;;;;;;11.20;76.29;101012.64;131516;1254;107758;-76
2023/09/06 04:04:54;;;;;;;10.60;7.80;;;;;;;11.17;76.36;101018.40;131596;1251;107095;-75
2023/09/06 04:08:04;;;;;;;9.90;7.10;;;;;;;11.13;76.37;101017.00;131306;1253;106637;-76
2023/09/06 04:11:10;;;;;;;8.60;6.60;;;;;;;11.12;76.29;101017.79;131242;1264;107489;-76
2023/09/06 04:14:16;;;;;;;10.10;7.80;;;;;;;11.14;76.45;101018.70;131490;1248;106689;-76
2023/09/06 04:17:22;;;;;;;9.90;7.40;;;;;;;11.16;76.58;101015.70;131457;1250;106579;-76
2023/09/06 04:20:31;;;;;;;9.10;6.90;;;;;;;11.21;76.64;101017.17;131283;1247;108046;-77
2023/09/06 04:23:39;;;;;;;11.70;7.70;;;;;;;11.26;76.30;101018.13;131561;1250;106629;-76
2023/09/06 04:26:45;;;;;;;10.50;7.60;;;;;;;11.29;76.42;101017.00;131565;1254;106777;-76
2023/09/06 04:29:52;;;;;;;9.50;6.80;;;;;;;11.32;76.35;101019.73;131536;1251;106540;-76
2023/09/06 04:32:58;;;;;;;11.40;7.70;;;;;;;11.36;76.57;101024.92;131359;1262;107129;-76
2023/09/06 04:36:04;;;;;;;11.50;7.20;;;;;;;11.44;76.71;101025.98;131514;1253;107702;-76
2023/09/06 04:39:11;;;;;;;8.10;6.00;;;;;;;11.55;76.91;101029.05;131471;1252;106693;-76
2023/09/06 04:42:17;;;;;;;10.50;6.80;;;;;;;11.69;76.80;101029.59;131424;1254;106939;-75
2023/09/06 04:45:24;;;;;;;8.30;6.80;;;;;;;11.87;76.94;101033.82;131479;1250;107128;-75
2023/09/06 04:48:30;;;;;;;10.50;7.40;;;;;;;12.07;76.86;101033.56;131484;1250;106757;-75
2023/09/06 04:51:38;;;;;;;9.10;6.60;;;;;;;12.24;76.64;101028.95;131552;1251;106973;-75
2023/09/06 04:54:45;;;;;;;9.80;7.00;;;;;;;12.42;76.91;101032.59;131405;1254;106514;-78
2023/09/06 04:57:53;;;;;;;10.80;6.90;;;;;;;12.56;76.72;101026.56;131649;1253;106885;-78
2023/09/06 05:01:05;;;;;;;9.60;6.90;;;;;;;12.70;76.90;101026.31;131688;1248;107576;-78
2023/09/06 05:04:11;;;;;;;9.10;6.20;;;;;;;12.85;76.71;101025.47;131446;1251;106668;-78
2023/09/06 05:07:17;;;;;;;10.60;7.10;;;;;;;12.99;76.81;101019.95;131304;1251;107080;-76
2023/09/06 05:10:23;;;;;;;10.90;8.60;;;;;;;13.15;76.84;101026.05;131472;1251;106382;-75
2023/09/06 05:13:29;;;;;;;9.20;7.40;;;;;;;13.35;76.89;101030.38;131345;1253;108779;-72
2023/09/06 05:16:35;;;;;;;9.00;7.20;;;;;;;13.52;76.98;101023.48;131373;1248;108616;-75
2023/09/06 05:19:40;;;;;;;8.90;7.10;;;;;;;13.69;77.02;101029.64;131388;1253;107952;-76
2023/09/06 05:22:46;;;;;;;9.70;7.30;;;;;;;13.82;77.20;101027.32;131402;1254;106497;-76
2023/09/06 05:25:52;;;;;;;9.50;7.80;;;;;;;13.88;77.08;101032.27;131213;1255;106714;-76
2023/09/06 05:29:04;;;;;;;10.30;7.60;;;;;;;13.90;77.32;101031.14;131380;1253;107362;-78
2023/09/06 05:32:11;;;;;;;8.30;6.40;;;;;;;13.95;77.53;101028.70;131410;1252;106843;-76
2023/09/06 05:35:19;;;;;;;10.10;7.00;;;;;;;14.02;77.84;101027.41;131313;1249;107673;-78
2023/09/06 05:38:25;;;;;;;8.50;6.80;;;;;;;14.08;78.21;101025.20;131383;1254;106474;-77
2023/09/06 05:41:31;;;;;;;12.00;8.50;;;;;;;14.18;78.59;101024.00;131356;1253;107652;-76
2023/09/06 05:44:38;;;;;;;12.40;7.80;;;;;;;14.29;78.90;101029.30;131309;1253;108396;-77
2023/09/06 05:47:43;;;;;;;9.70;8.10;;;;;;;14.41;79.08;101030.81;131121;1254;106620;-77
2023/09/06 05:50:49;;;;;;;10.60;8.40;;;;;;;14.52;79.10;101037.36;131223;1257;107700;-76
2023/09/06 05:53:56;;;;;;;9.60;7.90;;;;;;;14.62;79.19;101035.43;131332;1254;107723;-77
2023/09/06 05:57:04;;;;;;;10.10;7.90;;;;;;;14.73;79.49;101036.27;131354;1261;108236;-76
2023/09/06 06:00:15;;;;;;;9.00;7.70;;;;;;;14.85;79.35;101035.52;131131;1256;106570;-77
2023/09/06 06:03:26;;;;;;;11.50;9.00;;;;;;;15.01;79.69;101034.41;131488;1255;107372;-77
2023/09/06 06:06:34;;;;;;;13.00;10.30;;;;;;;15.17;80.10;101034.79;131554;1248;107244;-77
2023/09/06 06:09:40;;;;;;;13.40;10.30;;;;;;;15.32;80.13;101036.52;131413;1252;106653;-77
2023/09/06 06:12:46;;;;;;;12.60;10.30;;;;;;;15.43;79.98;101038.84;131529;1254;107685;-77
2023/09/06 06:15:51;;;;;;;14.80;9.40;;;;;;;15.54;80.27;101039.26;131507;1251;106749;-78
2023/09/06 06:18:57;;;;;;;14.60;9.80;;;;;;;15.65;80.10;101039.04;131495;1257;107799;-78
2023/09/06 06:22:04;;;;;;;12.00;9.60;;;;;;;15.78;80.12;101042.44;131586;1251;107742;-77
2023/09/06 06:25:11;;;;;;;14.10;10.10;;;;;;;15.94;80.34;101039.11;131549;1250;107660;-76
2023/09/06 06:28:17;;;;;;;13.50;10.50;;;;;;;16.10;80.26;101042.55;131437;1251;107762;-78
2023/09/06 06:31:22;;;;;;;14.80;10.90;;;;;;;16.22;80.08;101045.00;131532;1251;106127;-77
2023/09/06 06:34:28;;;;;;;14.00;11.00;;;;;;;16.36;80.36;101043.80;131573;1251;107412;-77
2023/09/06 06:37:34;;;;;;;12.70;9.70;;;;;;;16.47;80.28;101046.63;131512;1248;106912;-76
2023/09/06 06:40:39;;;;;;;14.10;10.40;;;;;;;16.60;80.31;101049.23;131560;1259;108612;-77
2023/09/06 06:43:46;;;;;;;14.00;10.80;;;;;;;16.73;80.19;101049.85;131515;1254;107514;-77
2023/09/06 06:46:52;;;;;;;15.10;9.60;;;;;;;16.85;80.09;101045.89;131546;1259;106174;-77
2023/09/06 06:50:03;;;;;;;14.60;10.50;;;;;;;16.99;79.96;101045.14;131584;1250;107557;-77
2023/09/06 06:53:09;;;;;;;14.10;10.10;;;;;;;17.13;80.00;101043.20;131525;1260;108044;-77
2023/09/06 06:56:16;;;;;;;13.80;10.60;;;;;;;17.26;79.68;101041.34;131504;1251;108201;-77
2023/09/06 06:59:22;;;;;;;14.40;9.00;;;;;;;17.37;80.06;101037.33;131538;1261;106861;-76
2023/09/06 07:02:27;;;;;;;11.00;8.30;;;;;;;17.48;79.71;101039.52;131498;1254;106444;-76
2023/09/06 07:05:33;;;;;;;15.10;8.80;;;;;;;17.62;79.76;101041.48;131530;1253;106661;-77
2023/09/06 07:08:38;;;;;;;10.70;7.60;;;;;;;17.78;79.39;101041.01;131579;1250;108496;-78
2023/09/06 07:11:44;;;;;;;9.70;7.80;;;;;;;17.92;79.08;101041.06;131490;1249;106968;-77
2023/09/06 07:14:51;;;;;;;11.90;8.10;;;;;;;18.03;79.04;101040.77;131516;1251;106586;-77
2023/09/06 07:17:56;;;;;;;12.50;8.00;;;;;;;18.17;78.92;101047.30;131486;1257;108159;-77
2023/09/06 07:21:02;;;;;;;10.00;7.50;;;;;;;18.28;78.74;101047.17;131548;1251;108504;-78
2023/09/06 07:24:13;;;;;;;8.80;7.10;;;;;;;18.37;78.57;101047.77;131439;1253;106450;-78
2023/09/06 07:27:20;;;;;;;8.60;7.10;;;;;;;18.47;78.34;101052.91;131493;1251;108449;-77
2023/09/06 07:30:26;;;;;;;10.40;7.00;;;;;;;18.56;78.40;101055.65;131424;1262;109632;-77
2023/09/06 07:33:32;;;;;;;9.50;7.50;;;;;;;18.68;78.43;101057.45;131521;1248;108373;-83
2023/09/06 07:36:37;;;;;;;9.80;7.30;;;;;;;18.80;77.97;101054.46;131555;1253;108607;-83
2023/09/06 07:39:43;;;;;;;9.50;7.50;;;;;;;18.92;77.90;101057.91;131600;1254;107186;-83
2023/09/06 07:42:49;;;;;;;7.80;6.40;;;;;;;19.04;77.37;101057.45;131660;1248;108376;-84
2023/09/06 07:45:54;;;;;;;8.50;6.90;;;;;;;19.14;77.39;101053.66;131657;1248;108583;-84
2023/09/06 07:49:00;;;;;;;7.60;6.50;;;;;;;19.22;76.89;101057.33;131570;1251;109035;-84
2023/09/06 07:52:08;;;;;;;9.40;6.50;;;;;;;19.30;76.63;101056.66;131649;1250;106898;-83
2023/09/06 07:55:14;;;;;;;7.90;5.90;;;;;;;19.39;76.55;101055.35;131648;1253;108636;-83
2023/09/06 07:58:19;;;;;;;8.60;6.60;;;;;;;19.49;76.62;101055.91;131576;1250;108005;-83
2023/09/06 08:01:25;;;;;;;8.30;6.30;;;;;;;19.58;76.30;101057.05;131644;1251;108804;-82
2023/09/06 08:04:31;;;;;;;7.70;6.30;;;;;;;19.63;75.89;101060.23;131637;1253;108633;-83
2023/09/06 08:07:37;;;;;;;7.80;5.80;;;;;;;19.66;75.78;101059.00;131557;1251;107688;-84
2023/09/06 08:10:43;;;;;;;9.80;5.50;;;;;;;19.73;75.79;101062.50;131643;1250;107097;-84
2023/09/06 08:13:51;;;;;;;6.60;5.40;;;;;;;19.85;75.21;101065.96;131602;1250;106736;-83
2023/09/06 08:16:57;;;;;;;7.40;5.20;;;;;;;19.94;74.80;101069.13;131647;1251;107571;-83
2023/09/06 08:20:04;;;;;;;6.40;5.30;;;;;;;20.00;73.63;101065.52;131596;1250;107639;-84
2023/09/06 08:23:10;;;;;;;9.80;5.80;;;;;;;20.09;71.50;101061.88;131686;1247;107739;-84
2023/09/06 08:26:16;;;;;;;7.00;5.10;;;;;;;20.18;71.34;101063.37;131749;1250;107447;-84
2023/09/06 08:29:22;;;;;;;6.10;5.10;;;;;;;20.25;70.59;101066.33;131634;1254;107511;-83
2023/09/06 08:32:27;;;;;;;6.40;4.40;;;;;;;20.33;71.96;101065.31;131600;1261;108554;-84
2023/09/06 08:35:33;;;;;;;6.50;5.10;;;;;;;20.39;72.22;101070.83;131518;1259;106951;-84
2023/09/06 08:38:39;;;;;;;9.10;4.90;;;;;;;20.46;71.64;101070.52;131544;1259;106888;-82
2023/09/06 08:41:48;;;;;;;8.00;5.10;;;;;;;20.52;72.10;101068.85;131600;1250;107667;-84
2023/09/06 08:44:55;;;;;;;6.10;5.30;;;;;;;20.58;72.12;101068.02;131614;1259;107551;-84
2023/09/06 08:48:02;;;;;;;6.70;5.60;;;;;;;20.64;70.60;101068.79;131646;1254;108518;-86
2023/09/06 08:51:11;;;;;;;6.20;4.90;;;;;;;20.70;70.79;101064.16;131475;1253;107087;-82
2023/09/06 08:54:23;;;;;;;6.30;4.70;;;;;;;20.72;70.83;101064.91;131713;1253;106694;-83
2023/09/06 08:57:29;;;;;;;5.90;5.30;;;;;;;20.73;70.49;101063.14;131614;1250;108643;-84
2023/09/06 09:00:38;;;;;;;5.70;4.90;;;;;;;20.78;70.03;101063.49;131609;1251;106865;-83
2023/09/06 09:03:43;;;;;;;6.00;5.10;;;;;;;20.90;70.72;101065.59;131879;1254;107690;-84
2023/09/06 09:06:49;;;;;;;6.10;4.70;;;;;;;20.95;70.13;101070.70;131733;1248;108340;-84
2023/09/06 09:10:01;;;;;;;6.10;4.60;;;;;;;20.94;69.69;101069.75;131708;1260;106576;-84
2023/09/06 09:13:11;;;;;;;6.30;5.20;;;;;;;20.96;69.04;101067.29;131688;1250;107149;-84
2023/09/06 09:16:18;;;;;;;6.80;4.60;;;;;;;21.04;66.97;101068.62;131627;1251;106883;-84
2023/09/06 09:19:24;;;;;;;5.20;4.60;;;;;;;21.14;67.14;101068.86;131630;1259;107608;-84
2023/09/06 09:22:33;;;;;;;7.90;5.80;;;;;;;21.22;66.02;101070.56;131609;1250;107673;-84
2023/09/06 09:25:48;;;;;;;5.80;4.90;;;;;;;21.27;66.14;101072.67;131668;1247;108635;-84
2023/09/06 09:28:54;;;;;;;8.30;5.10;;;;;;;21.32;67.48;101073.02;131720;1250;107738;-84
2023/09/06 09:32:04;;;;;;;6.50;4.60;;;;;;;21.34;66.71;101074.54;131703;1259;106531;-84
2023/09/06 09:35:13;;;;;;;6.50;4.90;;;;;;;21.37;66.07;101070.70;131603;1251;108176;-84
2023/09/06 09:38:19;;;;;;;6.10;4.80;;;;;;;21.42;65.90;101066.70;131669;1248;107511;-84
2023/09/06 09:41:24;;;;;;;5.90;4.70;;;;;;;21.44;65.35;101072.70;131582;1248;107736;-83
2023/09/06 09:44:30;;;;;;;6.50;4.90;;;;;;;21.45;65.97;101069.13;131673;1252;107023;-85
2023/09/06 09:47:36;;;;;;;5.00;4.30;;;;;;;21.44;65.69;101068.21;131663;1251;108632;-84
2023/09/06 09:50:44;;;;;;;7.50;4.90;;;;;;;21.47;65.32;101070.67;131693;1250;107338;-85
2023/09/06 09:53:50;;;;;;;6.30;4.50;;;;;;;21.57;65.62;101072.79;131774;1259;108543;-86
2023/09/06 09:57:04;;;;;;;5.80;4.50;;;;;;;21.62;65.21;101076.35;131670;1253;107618;-83
2023/09/06 10:00:13;;;;;;;5.60;4.50;;;;;;;21.71;65.10;101076.06;131603;1261;108260;-84
2023/09/06 10:03:19;;;;;;;5.20;4.70;;;;;;;21.77;65.41;101070.34;131763;1253;107367;-84
2023/09/06 10:06:27;;;;;;;6.10;4.90;;;;;;;21.81;65.31;101072.70;131750;1254;107730;-85
2023/09/06 10:09:34;;;;;;;6.90;5.10;;;;;;;21.83;64.91;101071.31;131697;1253;107565;-85
2023/09/06 10:12:41;;;;;;;6.60;5.20;;;;;;;21.84;63.93;101074.62;131748;1259;107686;-84
2023/09/06 10:15:48;;;;;;;6.40;4.50;;;;;;;21.89;63.26;101073.50;131752;1260;107130;-84
2023/09/06 10:18:54;;;;;;;7.30;4.60;;;;;;;21.92;63.62;101067.87;131662;1254;108501;-84
2023/09/06 10:22:00;;;;;;;4.60;4.20;;;;;;;21.93;63.50;101069.70;131667;1254;108553;-84
2023/09/06 10:25:10;;;;;;;5.50;4.70;;;;;;;22.01;60.72;101075.02;131798;1252;107578;-84
2023/09/06 10:28:20;;;;;;;5.50;4.70;;;;;;;22.13;60.45;101074.66;131643;1250;108662;-83
2023/09/06 10:31:36;;;;;;;5.00;4.50;;;;;;;22.25;60.63;101076.48;131707;1251;108057;-85
2023/09/06 10:34:45;;;;;;;5.80;4.50;;;;;;;22.37;58.41;101080.33;131678;1253;108676;-84
2023/09/06 10:38:10;;;;;;;5.00;4.30;;;;;;;22.44;60.67;101079.03;131672;1259;106748;-85
2023/09/06 10:41:17;;;;;;;5.70;4.20;;;;;;;22.49;61.38;101077.52;131736;1254;107145;-84
2023/09/06 10:44:25;;;;;;;5.20;4.40;;;;;;;22.59;61.49;101072.77;131640;1248;106633;-84
2023/09/06 10:47:33;;;;;;;5.90;4.30;;;;;;;22.59;60.89;101071.46;131724;1247;108714;-84
2023/09/06 10:50:39;;;;;;;5.40;4.30;;;;;;;22.57;61.11;101067.38;131745;1251;108603;-84
2023/09/06 10:53:50;;;;;;;5.10;4.60;;;;;;;22.58;60.89;101064.95;131743;1248;108453;-84
2023/09/06 10:57:06;;;;;;;4.90;4.10;;;;;;;22.58;60.87;101065.66;131810;1251;108677;-83
2023/09/06 11:00:17;;;;;;;5.60;4.00;;;;;;;22.59;61.06;101062.22;131581;1247;107980;-84
2023/09/06 11:03:31;;;;;;;5.70;5.00;;;;;;;22.62;59.42;101062.50;131767;1248;108596;-84
2023/09/06 11:06:52;;;;;;;6.20;4.50;;;;;;;22.67;59.97;101059.98;131847;1253;107888;-85
2023/09/06 11:09:58;;;;;;;5.50;4.60;;;;;;;22.69;59.11;101061.31;131712;1251;108214;-84
2023/09/06 11:13:14;;;;;;;5.90;4.90;;;;;;;22.79;59.00;101053.96;131723;1251;106929;-84
2023/09/06 11:16:21;;;;;;;6.10;5.00;;;;;;;22.89;57.83;101055.35;131680;1250;107679;-83
2023/09/06 11:19:30;;;;;;;5.90;5.30;;;;;;;22.92;57.59;101056.50;131695;1251;106668;-83
2023/09/06 11:22:36;;;;;;;6.80;5.40;;;;;;;22.95;57.85;101055.63;131705;1251;107137;-83
2023/09/06 11:25:42;;;;;;;5.30;4.40;;;;;;;22.96;56.81;101054.58;131727;1259;108531;-84
2023/09/06 11:28:49;;;;;;;5.80;4.90;;;;;;;22.99;56.07;101053.46;131690;1251;106800;-84
2023/09/06 11:32:08;;;;;;;6.00;4.70;;;;;;;23.03;57.54;101047.29;131783;1250;106648;-85
2023/09/06 11:35:15;;;;;;;5.90;4.20;;;;;;;23.02;57.61;101048.57;131731;1251;107943;-84
2023/09/06 11:38:28;;;;;;;5.20;4.60;;;;;;;23.03;58.34;101044.64;131729;1248;108555;-85
2023/09/06 11:41:35;;;;;;;5.70;4.50;;;;;;;23.04;58.09;101038.24;131789;1251;106548;-85
2023/09/06 11:44:47;;;;;;;5.20;4.70;;;;;;;23.09;58.68;101039.77;131572;1251;107457;-85
2023/09/06 11:47:56;;;;;;;6.10;4.10;;;;;;;23.11;58.19;101036.24;131686;1251;107689;-83
2023/09/06 11:51:08;;;;;;;5.70;4.50;;;;;;;23.13;58.38;101038.86;131705;1248;107673;-83
2023/09/06 11:54:15;;;;;;;6.60;4.60;;;;;;;23.16;58.17;101032.41;131602;1251;106314;-84
2023/09/06 11:57:26;;;;;;;5.30;4.80;;;;;;;23.20;58.59;101034.92;131726;1248;106874;-84
2023/09/06 12:00:42;;;;;;;4.80;4.30;;;;;;;23.24;57.80;101029.77;131713;1248;107843;-87
2023/09/06 12:03:49;;;;;;;5.40;4.40;;;;;;;23.33;58.11;101019.66;131676;1248;107405;-84
2023/09/06 12:06:57;;;;;;;6.60;4.30;;;;;;;23.34;58.41;101030.71;131651;1251;107813;-85
2023/09/06 12:10:04;;;;;;;4.50;4.00;;;;;;;23.33;58.22;101024.31;131798;1248;107374;-85
2023/09/06 12:13:10;;;;;;;5.00;4.40;;;;;;;23.31;57.94;101017.91;131670;1257;108531;-83
2023/09/06 12:16:16;;;;;;;5.50;4.50;;;;;;;23.30;57.96;101019.84;131597;1251;107721;-87
2023/09/06 12:19:22;;;;;;;5.70;4.30;;;;;;;23.33;55.86;101014.83;131691;1250;108614;-86
2023/09/06 12:22:30;;;;;;;5.90;3.90;;;;;;;23.36;55.43;101013.39;131734;1251;107148;-84
2023/09/06 12:25:35;;;;;;;4.90;4.20;;;;;;;23.43;56.20;101014.34;131713;1251;107603;-84
2023/09/06 12:28:41;;;;;;;4.60;4.00;;;;;;;23.48;55.48;101013.81;131685;1251;106656;-83
2023/09/06 12:31:49;;;;;;;5.20;4.30;;;;;;;23.48;55.24;101011.34;131748;1247;107901;-84
2023/09/06 12:34:55;;;;;;;7.20;4.10;;;;;;;23.49;55.78;101005.60;131745;1251;106895;-83
2023/09/06 12:38:01;;;;;;;6.60;4.30;;;;;;;23.48;55.90;101003.25;131698;1251;107993;-84
2023/09/06 12:41:06;;;;;;;4.30;3.90;;;;;;;23.45;54.97;101001.05;131710;1250;106517;-83
2023/09/06 12:44:12;;;;;;;4.40;3.90;;;;;;;23.44;53.87;100999.63;131676;1248;109262;-84
2023/09/06 12:47:17;;;;;;;5.80;4.30;;;;;;;23.45;55.12;100994.23;131652;1251;108290;-83
2023/09/06 12:50:23;;;;;;;4.30;3.90;;;;;;;23.45;54.72;100993.17;131682;1250;108355;-85
2023/09/06 12:53:29;;;;;;;5.80;4.10;;;;;;;23.48;54.19;100990.35;131728;1247;108600;-83
2023/09/06 12:56:35;;;;;;;5.50;3.80;;;;;;;23.56;52.67;100989.23;131719;1250;160231;-83
2023/09/06 12:59:42;;;;;;;5.10;4.00;;;;;;;23.64;52.60;100990.39;131679;1251;106947;-83
2023/09/06 13:02:48;;;;;;;5.30;4.10;;;;;;;23.70;52.03;100990.68;131723;1248;107201;-84
2023/09/06 13:05:55;;;;;;;5.40;4.10;;;;;;;23.74;53.69;100990.45;131720;1248;106965;-83
2023/09/06 13:09:01;;;;;;;5.10;4.20;;;;;;;23.72;54.06;100987.65;131722;1248;106676;-83
2023/09/06 13:12:08;;;;;;;5.30;4.00;;;;;;;23.69;53.05;100985.88;131668;1250;108031;-84
2023/09/06 13:15:14;;;;;;;5.30;3.80;;;;;;;23.69;52.76;100987.75;131546;1250;107086;-84
2023/09/06 13:18:20;;;;;;;4.70;3.80;;;;;;;23.66;53.16;100983.46;131635;1251;108628;-83
2023/09/06 13:21:26;;;;;;;4.10;3.60;;;;;;;23.66;53.01;100976.67;131656;1251;108630;-84
2023/09/06 13:24:33;;;;;;;5.30;3.80;;;;;;;23.68;53.43;100979.21;131668;1247;109438;-84
2023/09/06 13:27:39;;;;;;;4.30;3.70;;;;;;;23.66;52.83;100976.42;131605;1251;107823;-83
2023/09/06 13:30:44;;;;;;;5.20;3.60;;;;;;;23.65;53.56;100974.71;131650;1248;109424;-85
2023/09/06 13:33:50;;;;;;;3.50;3.20;;;;;;;23.64;53.39;100971.83;131758;1247;108452;-86
2023/09/06 13:36:55;;;;;;;4.80;3.90;;;;;;;23.67;53.66;100967.54;131594;1251;105871;-85
2023/09/06 13:40:02;;;;;;;3.80;3.30;;;;;;;23.66;53.18;100966.07;131685;1247;107131;-85
2023/09/06 13:43:07;;;;;;;3.70;3.30;;;;;;;23.64;52.71;100958.59;131631;1247;107787;-84
2023/09/06 13:46:13;;;;;;;4.60;3.90;;;;;;;23.64;51.86;100957.58;131596;1247;106659;-83
2023/09/06 13:49:19;;;;;;;4.30;3.70;;;;;;;23.68;52.21;100958.58;131580;1251;108668;-84
2023/09/06 13:52:24;;;;;;;4.10;3.70;;;;;;;23.70;52.82;100956.39;132154;1246;107012;-85
2023/09/06 13:55:31;;;;;;;4.70;3.90;;;;;;;23.67;52.82;100955.89;132385;1251;106422;-85
2023/09/06 13:58:36;;;;;;;5.60;4.10;;;;;;;23.64;52.75;100952.66;132215;1251;106636;-83
2023/09/06 14:01:42;;;;;;;5.20;3.90;;;;;;;23.60;52.73;100949.44;131680;1252;107152;-84
2023/09/06 14:04:48;;;;;;;5.00;4.40;;;;;;;23.62;52.85;100952.27;131713;1248;107401;-83
2023/09/06 14:07:54;;;;;;;4.20;3.80;;;;;;;23.65;52.88;100949.27;131600;1253;107637;-83